createdAt,value
2018-12-25T00:00:05.793Z,1022.45
2018-12-25T00:01:05.781Z,1022.42
2018-12-25T00:02:05.771Z,1022.42
2018-12-25T00:03:05.776Z,1022.45
2018-12-25T00:04:05.757Z,1022.44
2018-12-25T00:05:05.763Z,1022.44
2018-12-25T00:06:05.728Z,1022.47
2018-12-25T00:07:05.733Z,1022.46
2018-12-25T00:08:05.716Z,1022.44
2018-12-25T00:09:05.695Z,1022.48
2018-12-25T00:10:05.689Z,1022.44
2018-12-25T00:11:05.681Z,1022.47
2018-12-25T00:12:05.664Z,1022.43
2018-12-25T00:13:05.670Z,1022.43
2018-12-25T00:14:06.198Z,1022.44
2018-12-25T00:15:05.632Z,1022.47
2018-12-25T00:16:05.627Z,1022.46
2018-12-25T00:17:05.610Z,1022.45
2018-12-25T00:18:05.610Z,1022.43
2018-12-25T00:19:06.236Z,1022.45
2018-12-25T00:20:05.578Z,1022.45
2018-12-25T00:21:05.575Z,1022.45
2018-12-25T00:22:05.648Z,1022.47
2018-12-25T00:23:05.560Z,1022.45
2018-12-25T00:24:05.541Z,1022.40
2018-12-25T00:25:05.524Z,1022.40
2018-12-25T00:26:05.531Z,1022.38
2018-12-25T00:27:05.503Z,1022.41
2018-12-25T00:28:05.513Z,1022.36
2018-12-25T00:29:05.483Z,1022.42
2018-12-25T00:30:05.474Z,1022.40
2018-12-25T00:31:05.460Z,1022.39
2018-12-25T00:32:05.449Z,1022.42
2018-12-25T00:33:05.447Z,1022.44
2018-12-25T00:34:05.430Z,1022.40
2018-12-25T00:35:05.416Z,1022.37
2018-12-25T00:36:05.408Z,1022.42
2018-12-25T00:37:05.397Z,1022.39
2018-12-25T00:38:05.391Z,1022.35
2018-12-25T00:39:05.373Z,1022.33
2018-12-25T00:40:05.368Z,1022.38
2018-12-25T00:41:05.352Z,1022.36
2018-12-25T00:42:05.341Z,1022.34
2018-12-25T00:43:05.340Z,1022.35
2018-12-25T00:44:05.319Z,1022.35
2018-12-25T00:45:05.311Z,1022.31
2018-12-25T00:46:05.302Z,1022.32
2018-12-25T00:47:05.288Z,1022.35
2018-12-25T00:48:05.284Z,1022.34
2018-12-25T00:49:05.265Z,1022.33
2018-12-25T00:50:05.257Z,1022.35
2018-12-25T00:51:05.247Z,1022.37
2018-12-25T00:52:05.233Z,1022.34
2018-12-25T00:53:05.230Z,1022.36
2018-12-25T00:54:05.211Z,1022.39
2018-12-25T00:55:05.200Z,1022.44
2018-12-25T00:56:05.189Z,1022.43
2018-12-25T00:57:05.178Z,1022.42
2018-12-25T00:58:05.181Z,1022.44
2018-12-25T00:59:05.157Z,1022.47
2018-12-25T01:00:05.146Z,1022.37
2018-12-25T01:01:05.136Z,1022.47
2018-12-25T01:02:05.126Z,1022.47
2018-12-25T01:03:05.128Z,1022.43
2018-12-25T01:04:05.104Z,1022.45
2018-12-25T01:05:05.092Z,1022.39
2018-12-25T01:06:05.082Z,1022.38
2018-12-25T01:07:05.071Z,1022.37
2018-12-25T01:08:05.069Z,1022.38
2018-12-25T01:09:05.052Z,1022.41
2018-12-25T01:10:05.040Z,1022.40
2018-12-25T01:11:05.028Z,1022.48
2018-12-25T01:12:05.017Z,1022.44
2018-12-25T01:13:05.015Z,1022.44
2018-12-25T01:14:04.998Z,1022.42
2018-12-25T01:15:04.989Z,1022.40
2018-12-25T01:16:04.975Z,1022.43
2018-12-25T01:17:04.967Z,1022.49
2018-12-25T01:18:04.963Z,1022.47
2018-12-25T01:19:04.946Z,1022.48
2018-12-25T01:20:04.933Z,1022.40
2018-12-25T01:21:04.920Z,1022.46
2018-12-25T01:22:04.912Z,1022.43
2018-12-25T01:23:04.899Z,1022.44
2018-12-25T01:24:04.896Z,1022.43
2018-12-25T01:25:04.878Z,1022.45
2018-12-25T01:26:04.866Z,1022.38
2018-12-25T01:27:04.857Z,1022.42
2018-12-25T01:28:04.849Z,1022.40
2018-12-25T01:29:04.843Z,1022.43
2018-12-25T01:30:04.824Z,1022.47
2018-12-25T01:31:04.813Z,1022.46
2018-12-25T01:32:04.807Z,1022.52
2018-12-25T01:33:04.791Z,1022.52
2018-12-25T01:34:04.789Z,1022.50
2018-12-25T01:35:04.770Z,1022.49
2018-12-25T01:36:04.760Z,1022.48
2018-12-25T01:37:04.748Z,1022.45
2018-12-25T01:38:04.742Z,1022.45
2018-12-25T01:39:04.735Z,1022.46
2018-12-25T01:40:04.716Z,1022.48
2018-12-25T01:41:04.705Z,1022.52
2018-12-25T01:42:04.693Z,1022.50
2018-12-25T01:43:04.685Z,1022.52
2018-12-25T01:44:04.681Z,1022.52
2018-12-25T01:45:04.662Z,1022.50
2018-12-25T01:46:04.652Z,1022.50
2018-12-25T01:47:04.640Z,1022.53
2018-12-25T01:48:04.631Z,1022.47
2018-12-25T01:49:04.738Z,1022.52
2018-12-25T01:50:04.608Z,1022.44
2018-12-25T01:51:04.600Z,1022.43
2018-12-25T01:52:04.585Z,1022.48
2018-12-25T01:53:04.575Z,1022.48
2018-12-25T01:54:04.588Z,1022.48
2018-12-25T01:55:04.575Z,1022.46
2018-12-25T01:56:04.543Z,1022.44
2018-12-25T01:57:04.535Z,1022.49
2018-12-25T01:58:04.570Z,1022.43
2018-12-25T01:59:04.519Z,1022.51
2018-12-25T02:00:04.500Z,1022.46
2018-12-25T02:01:04.491Z,1022.40
2018-12-25T02:02:04.479Z,1022.46
2018-12-25T02:03:05.436Z,1022.44
2018-12-25T02:04:04.464Z,1022.45
2018-12-25T02:05:04.451Z,1022.37
2018-12-25T02:06:04.435Z,1022.39
2018-12-25T02:07:04.429Z,1022.36
2018-12-25T02:08:04.413Z,1022.47
2018-12-25T02:09:04.413Z,1022.43
2018-12-25T02:10:04.392Z,1022.46
2018-12-25T02:11:04.381Z,1022.38
2018-12-25T02:12:04.372Z,1022.38
2018-12-25T02:13:04.363Z,1022.39
2018-12-25T02:14:04.357Z,1022.39
2018-12-25T02:15:04.337Z,1022.38
2018-12-25T02:16:04.328Z,1022.42
2018-12-25T02:17:04.316Z,1022.37
2018-12-25T02:18:04.309Z,1022.38
2018-12-25T02:19:04.304Z,1022.44
2018-12-25T02:20:04.283Z,1022.38
2018-12-25T02:21:04.273Z,1022.42
2018-12-25T02:22:04.263Z,1022.43
2018-12-25T02:23:04.255Z,1022.37
2018-12-25T02:24:04.251Z,1022.35
2018-12-25T02:25:04.232Z,1022.40
2018-12-25T02:26:04.220Z,1022.34
2018-12-25T02:27:04.209Z,1022.34
2018-12-25T02:28:04.198Z,1022.34
2018-12-25T02:29:04.199Z,1022.27
2018-12-25T02:30:04.177Z,1022.23
2018-12-25T02:31:04.177Z,1022.28
2018-12-25T02:32:04.163Z,1022.20
2018-12-25T02:33:04.156Z,1022.18
2018-12-25T02:34:04.143Z,1022.20
2018-12-25T02:35:04.125Z,1022.18
2018-12-25T02:36:04.114Z,1022.20
2018-12-25T02:37:04.103Z,1022.21
2018-12-25T02:38:04.093Z,1022.17
2018-12-25T02:39:04.088Z,1022.13
2018-12-25T02:40:04.071Z,1022.10
2018-12-25T02:41:04.064Z,1022.11
2018-12-25T02:42:04.054Z,1022.09
2018-12-25T02:43:04.038Z,1022.13
2018-12-25T02:44:04.044Z,1022.12
2018-12-25T02:45:04.017Z,1022.12
2018-12-25T02:46:04.006Z,1022.08
2018-12-25T02:47:03.996Z,1022.03
2018-12-25T02:48:03.991Z,1022.09
2018-12-25T02:49:03.987Z,1022.04
2018-12-25T02:50:04.022Z,1022.05
2018-12-25T02:51:03.953Z,1022.01
2018-12-25T02:52:03.942Z,1021.94
2018-12-25T02:53:03.936Z,1022.02
2018-12-25T02:54:03.930Z,1022.03
2018-12-25T02:55:03.933Z,1022.03
2018-12-25T02:56:03.959Z,1022.05
2018-12-25T02:57:03.890Z,1021.95
2018-12-25T02:58:03.885Z,1021.90
2018-12-25T02:59:03.902Z,1022.07
2018-12-25T03:00:03.858Z,1022.03
2018-12-25T03:01:03.880Z,1022.00
2018-12-25T03:02:03.842Z,1022.02
2018-12-25T03:03:03.827Z,1022.00
2018-12-25T03:04:03.817Z,1022.04
2018-12-25T03:05:03.813Z,1022.06
2018-12-25T03:06:03.794Z,1022.10
2018-12-25T03:07:03.785Z,1022.06
2018-12-25T03:08:03.771Z,1022.09
2018-12-25T03:09:03.760Z,1022.06
2018-12-25T03:10:03.763Z,1022.08
2018-12-25T03:11:03.750Z,1022.04
2018-12-25T03:12:03.728Z,1021.97
2018-12-25T03:13:03.718Z,1021.94
2018-12-25T03:14:03.707Z,1022.04
2018-12-25T03:15:03.709Z,1022.03
2018-12-25T03:16:03.687Z,1021.98
2018-12-25T03:17:03.686Z,1022.02
2018-12-25T03:18:03.695Z,1021.99
2018-12-25T03:19:03.654Z,1021.95
2018-12-25T03:20:03.652Z,1021.97
2018-12-25T03:21:03.633Z,1022.00
2018-12-25T03:22:03.622Z,1022.01
2018-12-25T03:23:03.618Z,1022.07
2018-12-25T03:24:03.602Z,1022.04
2018-12-25T03:25:03.603Z,1022.10
2018-12-25T03:26:03.580Z,1022.06
2018-12-25T03:27:03.583Z,1022.03
2018-12-25T03:28:03.562Z,1022.02
2018-12-25T03:29:03.562Z,1021.95
2018-12-25T03:30:03.560Z,1021.94
2018-12-25T03:31:03.531Z,1021.90
2018-12-25T03:32:03.559Z,1021.96
2018-12-25T03:33:03.524Z,1021.97
2018-12-25T03:34:03.499Z,1021.99
2018-12-25T03:35:03.495Z,1021.93
2018-12-25T03:36:03.473Z,1021.94
2018-12-25T03:37:03.463Z,1021.93
2018-12-25T03:38:03.452Z,1021.96
2018-12-25T03:39:03.448Z,1021.89
2018-12-25T03:40:03.463Z,1021.87
2018-12-25T03:41:03.422Z,1021.87
2018-12-25T03:42:03.410Z,1021.89
2018-12-25T03:43:03.408Z,1021.84
2018-12-25T03:44:03.388Z,1021.86
2018-12-25T03:45:03.378Z,1021.86
2018-12-25T03:46:03.378Z,1021.81
2018-12-25T03:47:03.358Z,1021.82
2018-12-25T03:48:03.348Z,1021.79
2018-12-25T03:49:03.354Z,1021.80
2018-12-25T03:50:10.597Z,1021.79
2018-12-25T03:51:04.324Z,1021.82
2018-12-25T03:52:03.312Z,1021.84
2018-12-25T03:53:03.295Z,1021.80
2018-12-25T03:54:03.288Z,1021.78
2018-12-25T03:55:03.274Z,1021.82
2018-12-25T03:56:03.274Z,1021.79
2018-12-25T03:57:03.256Z,1021.82
2018-12-25T03:58:03.242Z,1021.72
2018-12-25T03:59:03.231Z,1021.64
2018-12-25T04:00:03.224Z,1021.79
2018-12-25T04:01:03.220Z,1021.80
2018-12-25T04:02:03.201Z,1021.84
2018-12-25T04:03:03.188Z,1021.76
2018-12-25T04:04:03.190Z,1021.65
2018-12-25T04:05:03.168Z,1021.67
2018-12-25T04:06:03.174Z,1021.63
2018-12-25T04:07:03.146Z,1021.62
2018-12-25T04:08:03.133Z,1021.63
2018-12-25T04:09:03.123Z,1021.53
2018-12-25T04:10:03.119Z,1021.55
2018-12-25T04:11:03.109Z,1021.56
2018-12-25T04:12:03.090Z,1021.48
2018-12-25T04:13:03.080Z,1021.49
2018-12-25T04:14:03.074Z,1021.51
2018-12-25T04:15:03.062Z,1021.48
2018-12-25T04:16:03.077Z,1021.54
2018-12-25T04:17:03.042Z,1021.49
2018-12-25T04:18:03.028Z,1021.47
2018-12-25T04:19:03.020Z,1021.47
2018-12-25T04:20:03.016Z,1021.46
2018-12-25T04:21:02.996Z,1021.53
2018-12-25T04:22:02.997Z,1021.55
2018-12-25T04:23:02.974Z,1021.54
2018-12-25T04:24:02.965Z,1021.59
2018-12-25T04:25:02.953Z,1021.59
2018-12-25T04:26:02.943Z,1021.54
2018-12-25T04:27:02.953Z,1021.57
2018-12-25T04:28:02.924Z,1021.55
2018-12-25T04:29:02.917Z,1021.55
2018-12-25T04:30:02.899Z,1021.58
2018-12-25T04:31:02.890Z,1021.57
2018-12-25T04:32:02.886Z,1021.57
2018-12-25T04:33:02.867Z,1021.57
2018-12-25T04:34:02.858Z,1021.58
2018-12-25T04:35:02.848Z,1021.63
2018-12-25T04:36:02.837Z,1021.65
2018-12-25T04:37:02.835Z,1021.68
2018-12-25T04:38:02.816Z,1021.61
2018-12-25T04:39:02.804Z,1021.62
2018-12-25T04:40:02.793Z,1021.68
2018-12-25T04:41:02.789Z,1021.63
2018-12-25T04:42:02.779Z,1021.65
2018-12-25T04:43:02.761Z,1021.51
2018-12-25T04:44:02.751Z,1021.62
2018-12-25T04:45:02.744Z,1021.68
2018-12-25T04:46:02.731Z,1021.66
2018-12-25T04:47:02.729Z,1021.69
2018-12-25T04:48:02.707Z,1021.71
2018-12-25T04:49:02.698Z,1021.63
2018-12-25T04:50:02.690Z,1021.66
2018-12-25T04:51:02.680Z,1021.67
2018-12-25T04:52:02.678Z,1021.65
2018-12-25T04:53:02.659Z,1021.68
2018-12-25T04:54:02.716Z,1021.66
2018-12-25T04:55:02.635Z,1021.68
2018-12-25T04:56:02.629Z,1021.69
2018-12-25T04:57:02.628Z,1021.70
2018-12-25T04:58:02.601Z,1021.73
2018-12-25T04:59:02.593Z,1021.70
2018-12-25T05:00:02.582Z,1021.67
2018-12-25T05:01:02.578Z,1021.72
2018-12-25T05:02:02.567Z,1021.72
2018-12-25T05:03:02.547Z,1021.73
2018-12-25T05:04:02.537Z,1021.60
2018-12-25T05:05:02.526Z,1021.64
2018-12-25T05:06:02.515Z,1021.72
2018-12-25T05:07:02.618Z,1021.70
2018-12-25T05:08:02.494Z,1021.74
2018-12-25T05:09:02.485Z,1021.74
2018-12-25T05:10:02.476Z,1021.68
2018-12-25T05:11:02.467Z,1021.67
2018-12-25T05:12:02.461Z,1021.68
2018-12-25T05:13:02.441Z,1021.76
2018-12-25T05:14:02.429Z,1021.78
2018-12-25T05:15:02.419Z,1021.77
2018-12-25T05:16:02.410Z,1021.72
2018-12-25T05:17:02.404Z,1021.78
2018-12-25T05:18:02.386Z,1021.77
2018-12-25T05:19:02.375Z,1021.79
2018-12-25T05:20:02.370Z,1021.81
2018-12-25T05:21:02.355Z,1021.86
2018-12-25T05:22:02.352Z,1021.87
2018-12-25T05:23:02.334Z,1021.87
2018-12-25T05:24:02.322Z,1021.94
2018-12-25T05:25:02.313Z,1021.90
2018-12-25T05:26:02.304Z,1021.96
2018-12-25T05:27:02.580Z,1021.94
2018-12-25T05:28:02.281Z,1021.86
2018-12-25T05:29:02.269Z,1021.87
2018-12-25T05:30:02.262Z,1021.86
2018-12-25T05:31:02.254Z,1021.89
2018-12-25T05:32:02.247Z,1021.93
2018-12-25T05:33:02.234Z,1021.99
2018-12-25T05:34:02.216Z,1022.00
2018-12-25T05:35:02.208Z,1021.92
2018-12-25T05:36:02.198Z,1021.92
2018-12-25T05:37:02.183Z,1021.92
2018-12-25T05:38:02.184Z,1022.00
2018-12-25T05:39:02.163Z,1022.00
2018-12-25T05:40:02.151Z,1022.09
2018-12-25T05:41:02.141Z,1022.03
2018-12-25T05:42:02.191Z,1022.03
2018-12-25T05:43:02.128Z,1022.07
2018-12-25T05:44:02.108Z,1021.95
2018-12-25T05:45:02.113Z,1022.04
2018-12-25T05:46:02.091Z,1022.03
2018-12-25T05:47:02.077Z,1022.11
2018-12-25T05:48:02.075Z,1022.03
2018-12-25T05:49:02.057Z,1022.05
2018-12-25T05:50:02.046Z,1022.07
2018-12-25T05:51:02.038Z,1022.05
2018-12-25T05:52:02.026Z,1022.05
2018-12-25T05:53:02.029Z,1021.98
2018-12-25T05:54:02.004Z,1021.97
2018-12-25T05:55:01.993Z,1021.90
2018-12-25T05:56:01.985Z,1022.00
2018-12-25T05:57:01.972Z,1021.99
2018-12-25T05:58:01.969Z,1021.97
2018-12-25T05:59:01.950Z,1021.95
2018-12-25T06:00:01.940Z,1021.96
2018-12-25T06:01:01.949Z,1021.95
2018-12-25T06:02:01.918Z,1021.97
2018-12-25T06:03:01.936Z,1022.03
2018-12-25T06:04:01.898Z,1022.02
2018-12-25T06:05:01.888Z,1021.93
2018-12-25T06:06:01.878Z,1021.96
2018-12-25T06:07:01.865Z,1022.04
2018-12-25T06:08:01.855Z,1022.02
2018-12-25T06:09:01.852Z,1022.03
2018-12-25T06:10:01.832Z,1022.08
2018-12-25T06:11:01.827Z,1022.01
2018-12-25T06:12:01.818Z,1021.94
2018-12-25T06:13:01.800Z,1022.01
2018-12-25T06:14:01.798Z,1022.00
2018-12-25T06:15:01.786Z,1022.08
2018-12-25T06:16:01.768Z,1021.99
2018-12-25T06:17:01.757Z,1022.01
2018-12-25T06:18:01.746Z,1021.99
2018-12-25T06:19:01.746Z,1022.10
2018-12-25T06:20:01.724Z,1022.08
2018-12-25T06:21:01.715Z,1022.05
2018-12-25T06:22:01.707Z,1022.01
2018-12-25T06:23:01.695Z,1021.98
2018-12-25T06:24:01.692Z,1021.95
2018-12-25T06:25:01.677Z,1022.03
2018-12-25T06:26:01.664Z,1022.04
2018-12-25T06:27:01.709Z,1022.00
2018-12-25T06:28:01.644Z,1022.02
2018-12-25T06:29:01.643Z,1021.96
2018-12-25T06:30:01.622Z,1021.92
2018-12-25T06:31:01.608Z,1021.94
2018-12-25T06:32:01.598Z,1021.96
2018-12-25T06:33:01.587Z,1021.91
2018-12-25T06:34:01.604Z,1021.91
2018-12-25T06:35:01.566Z,1021.84
2018-12-25T06:36:01.557Z,1021.85
2018-12-25T06:37:01.544Z,1021.82
2018-12-25T06:38:01.534Z,1021.81
2018-12-25T06:39:01.523Z,1021.71
2018-12-25T06:40:01.523Z,1021.71
2018-12-25T06:41:01.503Z,1021.72
2018-12-25T06:42:01.493Z,1021.71
2018-12-25T06:43:01.481Z,1021.64
2018-12-25T06:44:01.474Z,1021.60
2018-12-25T06:45:01.467Z,1021.57
2018-12-25T06:46:01.449Z,1021.58
2018-12-25T06:47:01.442Z,1021.63
2018-12-25T06:48:01.427Z,1021.61
2018-12-25T06:49:01.417Z,1021.65
2018-12-25T06:50:01.415Z,1021.65
2018-12-25T06:51:03.975Z,1021.69
2018-12-25T06:52:01.387Z,1021.66
2018-12-25T06:53:01.374Z,1021.67
2018-12-25T06:54:01.364Z,1021.70
2018-12-25T06:55:01.364Z,1021.74
2018-12-25T06:56:01.344Z,1021.76
2018-12-25T06:57:01.333Z,1021.67
2018-12-25T06:58:01.330Z,1021.62
2018-12-25T06:59:01.310Z,1021.59
2018-12-25T07:00:01.312Z,1021.51
2018-12-25T07:01:01.293Z,1021.57
2018-12-25T07:02:01.278Z,1021.53
2018-12-25T07:03:01.267Z,1021.47
2018-12-25T07:04:01.256Z,1021.55
2018-12-25T07:05:01.285Z,1021.52
2018-12-25T07:06:01.236Z,1021.44
2018-12-25T07:07:01.226Z,1021.43
2018-12-25T07:08:01.213Z,1021.40
2018-12-25T07:09:01.203Z,1021.40
2018-12-25T07:10:01.193Z,1021.34
2018-12-25T07:11:01.190Z,1021.42
2018-12-25T07:12:01.172Z,1021.40
2018-12-25T07:13:01.161Z,1021.39
2018-12-25T07:14:01.229Z,1021.38
2018-12-25T07:15:01.139Z,1021.38
2018-12-25T07:16:01.137Z,1021.39
2018-12-25T07:17:01.124Z,1021.39
2018-12-25T07:18:01.111Z,1021.34
2018-12-25T07:19:01.097Z,1021.35
2018-12-25T07:20:01.086Z,1021.34
2018-12-25T07:21:01.084Z,1021.36
2018-12-25T07:22:01.065Z,1021.31
2018-12-25T07:23:01.061Z,1021.31
2018-12-25T07:24:01.049Z,1021.27
2018-12-25T07:25:01.033Z,1021.37
2018-12-25T07:26:01.030Z,1021.38
2018-12-25T07:27:01.012Z,1021.34
2018-12-25T07:28:01.004Z,1021.33
2018-12-25T07:29:00.990Z,1021.32
2018-12-25T07:30:00.983Z,1021.29
2018-12-25T07:31:00.979Z,1021.32
2018-12-25T07:32:00.959Z,1021.23
2018-12-25T07:33:00.950Z,1021.27
2018-12-25T07:34:00.936Z,1021.21
2018-12-25T07:35:00.926Z,1021.16
2018-12-25T07:36:00.923Z,1021.21
2018-12-25T07:37:00.904Z,1021.29
2018-12-25T07:38:00.894Z,1021.26
2018-12-25T07:39:00.883Z,1021.28
2018-12-25T07:40:00.873Z,1021.16
2018-12-25T07:41:00.873Z,1021.17
2018-12-25T07:42:00.851Z,1021.14
2018-12-25T07:43:00.841Z,1021.13
2018-12-25T07:44:00.829Z,1021.11
2018-12-25T07:45:00.822Z,1021.10
2018-12-25T07:46:00.819Z,1021.08
2018-12-25T07:47:00.797Z,1021.11
2018-12-25T07:48:00.800Z,1021.14
2018-12-25T07:49:00.776Z,1021.25
2018-12-25T07:50:00.766Z,1021.22
2018-12-25T07:51:01.050Z,1021.18
2018-12-25T07:52:00.745Z,1021.18
2018-12-25T07:53:00.734Z,1021.22
2018-12-25T07:54:00.730Z,1021.21
2018-12-25T07:55:00.713Z,1021.20
2018-12-25T07:56:00.703Z,1021.21
2018-12-25T07:57:00.699Z,1021.20
2018-12-25T07:58:00.684Z,1021.22
2018-12-25T07:59:00.670Z,1021.27
2018-12-25T08:00:00.661Z,1021.25
2018-12-25T08:01:00.650Z,1021.22
2018-12-25T08:02:00.652Z,1021.27
2018-12-25T08:03:00.673Z,1021.26
2018-12-25T08:04:00.616Z,1021.21
2018-12-25T08:05:00.606Z,1021.26
2018-12-25T08:06:00.597Z,1021.28
2018-12-25T08:07:00.592Z,1021.28
2018-12-25T08:08:00.584Z,1021.30
2018-12-25T08:09:00.563Z,1021.30
2018-12-25T08:10:00.553Z,1021.27
2018-12-25T08:11:00.544Z,1021.35
2018-12-25T08:12:01.992Z,1021.38
2018-12-25T08:13:00.522Z,1021.34
2018-12-25T08:14:00.509Z,1021.29
2018-12-25T08:15:00.612Z,1021.36
2018-12-25T08:16:00.489Z,1021.34
2018-12-25T08:17:00.490Z,1021.32
2018-12-25T08:18:00.467Z,1021.35
2018-12-25T08:19:00.456Z,1021.41
2018-12-25T08:20:00.445Z,1021.36
2018-12-25T08:21:00.435Z,1021.43
2018-12-25T08:22:00.432Z,1021.43
2018-12-25T08:23:02.647Z,1021.39
2018-12-25T08:24:00.403Z,1021.43
2018-12-25T08:25:00.393Z,1021.49
2018-12-25T08:26:00.381Z,1021.48
2018-12-25T08:27:00.380Z,1021.42
2018-12-25T08:28:00.363Z,1021.41
2018-12-25T08:29:00.351Z,1021.45
2018-12-25T08:30:00.339Z,1021.48
2018-12-25T08:31:00.328Z,1021.49
2018-12-25T08:32:00.319Z,1021.50
2018-12-25T08:33:00.320Z,1021.45
2018-12-25T08:34:00.297Z,1021.47
2018-12-25T08:35:00.287Z,1021.42
2018-12-25T08:36:00.274Z,1021.40
2018-12-25T08:37:00.263Z,1021.39
2018-12-25T08:38:00.266Z,1021.38
2018-12-25T08:39:00.247Z,1021.39
2018-12-25T08:40:00.280Z,1021.46
2018-12-25T08:41:00.248Z,1021.38
2018-12-25T08:42:00.210Z,1021.41
2018-12-25T08:43:00.212Z,1021.45
2018-12-25T08:44:00.189Z,1021.41
2018-12-25T08:45:00.185Z,1021.43
2018-12-25T08:46:00.169Z,1021.47
2018-12-25T08:47:02.743Z,1021.37
2018-12-25T08:48:00.155Z,1021.39
2018-12-25T08:49:00.136Z,1021.33
2018-12-25T08:50:00.175Z,1021.38
2018-12-25T08:51:00.114Z,1021.37
2018-12-25T08:52:00.104Z,1021.38
2018-12-25T08:53:00.100Z,1021.39
2018-12-25T08:54:00.082Z,1021.42
2018-12-25T08:55:00.086Z,1021.42
2018-12-25T08:56:00.060Z,1021.38
2018-12-25T08:57:00.064Z,1021.43
2018-12-25T08:58:00.050Z,1021.42
2018-12-25T08:59:00.027Z,1021.48
2018-12-25T09:00:00.018Z,1021.45
2018-12-25T09:01:00.005Z,1021.47
2018-12-25T09:01:59.996Z,1021.49
2018-12-25T09:02:59.993Z,1021.44
2018-12-25T09:03:59.973Z,1021.54
2018-12-25T09:04:59.964Z,1021.52
2018-12-25T09:05:59.953Z,1021.56
2018-12-25T09:06:59.942Z,1021.57
2018-12-25T09:07:59.942Z,1021.55
2018-12-25T09:08:59.920Z,1021.58
2018-12-25T09:09:59.910Z,1021.55
2018-12-25T09:10:59.896Z,1021.56
2018-12-25T09:11:59.890Z,1021.51
2018-12-25T09:12:59.883Z,1021.45
2018-12-25T09:13:59.865Z,1021.54
2018-12-25T09:14:59.855Z,1021.48
2018-12-25T09:15:59.842Z,1021.55
2018-12-25T09:16:59.833Z,1021.53
2018-12-25T09:17:59.821Z,1021.56
2018-12-25T09:18:59.819Z,1021.52
2018-12-25T09:19:59.801Z,1021.56
2018-12-25T09:20:59.803Z,1021.57
2018-12-25T09:21:59.778Z,1021.55
2018-12-25T09:22:59.768Z,1021.49
2018-12-25T09:23:59.766Z,1021.44
2018-12-25T09:24:59.747Z,1021.45
2018-12-25T09:25:59.735Z,1021.42
2018-12-25T09:26:59.737Z,1021.39
2018-12-25T09:27:59.712Z,1021.38
2018-12-25T09:28:59.713Z,1021.43
2018-12-25T09:29:59.691Z,1021.47
2018-12-25T09:30:59.701Z,1021.41
2018-12-25T09:31:59.669Z,1021.47
2018-12-25T09:32:59.660Z,1021.47
2018-12-25T09:33:59.655Z,1021.45
2018-12-25T09:34:59.637Z,1021.51
2018-12-25T09:35:59.629Z,1021.50
2018-12-25T09:36:59.615Z,1021.46
2018-12-25T09:37:59.604Z,1021.50
2018-12-25T09:38:59.601Z,1021.44
2018-12-25T09:39:59.582Z,1021.43
2018-12-25T09:40:59.573Z,1021.51
2018-12-25T09:41:59.562Z,1021.49
2018-12-25T09:42:59.554Z,1021.46
2018-12-25T09:43:59.547Z,1021.42
2018-12-25T09:44:59.527Z,1021.41
2018-12-25T09:45:59.518Z,1021.40
2018-12-25T09:46:59.506Z,1021.33
2018-12-25T09:47:59.503Z,1021.34
2018-12-25T09:48:59.521Z,1021.32
2018-12-25T09:49:59.473Z,1021.29
2018-12-25T09:50:59.462Z,1021.29
2018-12-25T09:51:59.452Z,1021.32
2018-12-25T09:52:59.442Z,1021.29
2018-12-25T09:53:59.438Z,1021.35
2018-12-25T09:54:59.426Z,1021.35
2018-12-25T09:55:59.408Z,1021.36
2018-12-25T09:56:59.397Z,1021.41
2018-12-25T09:57:59.385Z,1021.34
2018-12-25T09:58:59.378Z,1021.39
2018-12-25T09:59:59.376Z,1021.37
2018-12-25T10:00:59.353Z,1021.31
2018-12-25T10:01:59.344Z,1021.40
2018-12-25T10:02:59.332Z,1021.42
2018-12-25T10:03:59.326Z,1021.41
2018-12-25T10:04:59.319Z,1021.41
2018-12-25T10:05:59.301Z,1021.33
2018-12-25T10:06:59.302Z,1021.46
2018-12-25T10:07:59.279Z,1021.47
2018-12-25T10:08:59.267Z,1021.45
2018-12-25T10:09:59.264Z,1021.40
2018-12-25T10:10:59.248Z,1021.48
2018-12-25T10:11:59.234Z,1021.39
2018-12-25T10:12:59.223Z,1021.42
2018-12-25T10:13:59.213Z,1021.40
2018-12-25T10:14:59.215Z,1021.41
2018-12-25T10:15:59.191Z,1021.42
2018-12-25T10:16:59.182Z,1021.47
2018-12-25T10:17:59.619Z,1021.48
2018-12-25T10:18:59.173Z,1021.42
2018-12-25T10:19:59.179Z,1021.40
2018-12-25T10:20:59.138Z,1021.43
2018-12-25T10:22:02.892Z,1021.45
2018-12-25T10:23:00.115Z,1021.44
2018-12-25T10:23:59.104Z,1021.38
2018-12-25T10:24:59.092Z,1021.41
2018-12-25T10:25:59.090Z,1021.44
2018-12-25T10:26:59.073Z,1021.41
2018-12-25T10:27:59.063Z,1021.38
2018-12-25T10:28:59.052Z,1021.47
2018-12-25T10:29:59.038Z,1021.41
2018-12-25T10:30:59.041Z,1021.45
2018-12-25T10:31:59.017Z,1021.39
2018-12-25T10:32:59.013Z,1021.44
2018-12-25T10:33:59.060Z,1021.46
2018-12-25T10:34:58.986Z,1021.51
2018-12-25T10:35:58.983Z,1021.50
2018-12-25T10:36:58.966Z,1021.45
2018-12-25T10:37:58.954Z,1021.44
2018-12-25T10:38:58.946Z,1021.42
2018-12-25T10:39:58.931Z,1021.38
2018-12-25T10:40:58.929Z,1021.43
2018-12-25T10:41:58.911Z,1021.37
2018-12-25T10:42:58.900Z,1021.41
2018-12-25T10:43:58.889Z,1021.30
2018-12-25T10:44:58.878Z,1021.23
2018-12-25T10:45:58.875Z,1021.26
2018-12-25T10:46:58.860Z,1021.28
2018-12-25T10:47:58.845Z,1021.23
2018-12-25T10:48:58.834Z,1021.31
2018-12-25T10:49:58.823Z,1021.31
2018-12-25T10:50:58.821Z,1021.30
2018-12-25T10:51:58.806Z,1021.28
2018-12-25T10:52:58.806Z,1021.30
2018-12-25T10:53:58.780Z,1021.29
2018-12-25T10:54:58.771Z,1021.31
2018-12-25T10:55:58.789Z,1021.35
2018-12-25T10:56:58.752Z,1021.33
2018-12-25T10:57:58.738Z,1021.35
2018-12-25T10:58:58.731Z,1021.32
2018-12-25T10:59:58.716Z,1021.37
2018-12-25T11:00:58.708Z,1021.32
2018-12-25T11:01:58.729Z,1021.30
2018-12-25T11:02:58.684Z,1021.35
2018-12-25T11:03:58.674Z,1021.35
2018-12-25T11:04:58.661Z,1021.31
2018-12-25T11:05:58.652Z,1021.38
2018-12-25T11:06:58.652Z,1021.36
2018-12-25T11:07:58.629Z,1021.34
2018-12-25T11:08:58.619Z,1021.32
2018-12-25T11:09:58.608Z,1021.38
2018-12-25T11:10:58.598Z,1021.31
2018-12-25T11:11:58.595Z,1021.40
2018-12-25T11:12:58.575Z,1021.33
2018-12-25T11:13:58.565Z,1021.44
2018-12-25T11:14:58.555Z,1021.30
2018-12-25T11:15:58.549Z,1021.32
2018-12-25T11:16:58.541Z,1021.36
2018-12-25T11:17:58.522Z,1021.35
2018-12-25T11:18:58.513Z,1021.35
2018-12-25T11:19:58.503Z,1021.31
2018-12-25T11:20:58.496Z,1021.26
2018-12-25T11:21:58.486Z,1021.35
2018-12-25T11:22:58.466Z,1021.26
2018-12-25T11:23:58.458Z,1021.33
2018-12-25T11:24:58.451Z,1021.42
2018-12-25T11:25:58.434Z,1021.32
2018-12-25T11:26:58.435Z,1021.30
2018-12-25T11:27:58.436Z,1021.30
2018-12-25T11:28:58.405Z,1021.28
2018-12-25T11:29:58.391Z,1021.25
2018-12-25T11:30:58.380Z,1021.39
2018-12-25T11:31:58.378Z,1021.39
2018-12-25T11:32:58.358Z,1021.35
2018-12-25T11:33:58.347Z,1021.35
2018-12-25T11:34:58.336Z,1021.34
2018-12-25T11:35:58.326Z,1021.33
2018-12-25T11:36:58.325Z,1021.33
2018-12-25T11:37:58.310Z,1021.31
2018-12-25T11:38:58.293Z,1021.33
2018-12-25T11:39:58.284Z,1021.36
2018-12-25T11:40:58.275Z,1021.35
2018-12-25T11:41:58.261Z,1021.28
2018-12-25T11:42:58.257Z,1021.25
2018-12-25T11:43:58.241Z,1021.27
2018-12-25T11:44:58.228Z,1021.29
2018-12-25T11:45:58.217Z,1021.22
2018-12-25T11:46:58.207Z,1021.23
2018-12-25T11:47:58.205Z,1021.18
2018-12-25T11:48:58.183Z,1021.27
2018-12-25T11:49:58.173Z,1021.24
2018-12-25T11:50:58.162Z,1021.28
2018-12-25T11:51:58.152Z,1021.23
2018-12-25T11:52:58.152Z,1021.24
2018-12-25T11:53:58.138Z,1021.25
2018-12-25T11:54:58.120Z,1021.29
2018-12-25T11:55:58.109Z,1021.28
2018-12-25T11:56:58.099Z,1021.29
2018-12-25T11:57:58.096Z,1021.29
2018-12-25T11:58:58.077Z,1021.32
2018-12-25T11:59:58.066Z,1021.27
2018-12-25T12:00:58.053Z,1021.28
2018-12-25T12:01:58.047Z,1021.34
2018-12-25T12:02:58.042Z,1021.29
2018-12-25T12:03:58.024Z,1021.29
2018-12-25T12:04:58.012Z,1021.26